sensor_id;sensor_type;location;lat;lon;timestamp;P1;durP1;ratioP1;P2;durP2;ratioP2
70532;SDS011;58088;51.186;17.130;2023-04-03T00:01:23;4.00;;;0.90;;
70532;SDS011;58088;51.186;17.130;2023-04-03T00:03:50;7.00;;;1.60;;
70532;SDS011;58088;51.186;17.130;2023-04-03T00:06:17;2.90;;;0.60;;
70532;SDS011;58088;51.186;17.130;2023-04-03T00:08:43;4.40;;;1.10;;
70532;SDS011;58088;51.186;17.130;2023-04-03T00:11:10;5.10;;;0.90;;
70532;SDS011;58088;51.186;17.130;2023-04-03T00:13:37;5.80;;;0.70;;
70532;SDS011;58088;51.186;17.130;2023-04-03T00:16:04;5.00;;;1.30;;
70532;SDS011;58088;51.186;17.130;2023-04-03T00:18:31;5.90;;;0.90;;
70532;SDS011;58088;51.186;17.130;2023-04-03T00:20:57;6.40;;;1.50;;
70532;SDS011;58088;51.186;17.130;2023-04-03T00:23:24;5.50;;;1.00;;
70532;SDS011;58088;51.186;17.130;2023-04-03T00:25:51;5.00;;;1.20;;
70532;SDS011;58088;51.186;17.130;2023-04-03T00:28:17;5.10;;;1.10;;
70532;SDS011;58088;51.186;17.130;2023-04-03T00:30:43;5.60;;;1.30;;
70532;SDS011;58088;51.186;17.130;2023-04-03T00:33:13;5.70;;;1.90;;
70532;SDS011;58088;51.186;17.130;2023-04-03T00:35:40;4.20;;;0.80;;
70532;SDS011;58088;51.186;17.130;2023-04-03T00:38:06;4.80;;;1.00;;
70532;SDS011;58088;51.186;17.130;2023-04-03T00:40:38;5.60;;;1.10;;
70532;SDS011;58088;51.186;17.130;2023-04-03T00:43:23;5.60;;;1.00;;
70532;SDS011;58088;51.186;17.130;2023-04-03T00:45:53;8.40;;;1.10;;
70532;SDS011;58088;51.186;17.130;2023-04-03T00:48:32;3.50;;;0.70;;
70532;SDS011;58088;51.186;17.130;2023-04-03T00:51:06;6.50;;;1.20;;
70532;SDS011;58088;51.186;17.130;2023-04-03T00:53:56;5.10;;;1.30;;
70532;SDS011;58088;51.186;17.130;2023-04-03T00:56:26;5.40;;;0.90;;
70532;SDS011;58088;51.186;17.130;2023-04-03T00:59:02;6.40;;;1.20;;
70532;SDS011;58088;51.186;17.130;2023-04-03T01:01:32;4.40;;;1.00;;
70532;SDS011;58088;51.186;17.130;2023-04-03T01:03:59;3.80;;;0.90;;
70532;SDS011;58088;51.186;17.130;2023-04-03T01:06:29;4.60;;;1.20;;
70532;SDS011;58088;51.186;17.130;2023-04-03T01:09:04;6.40;;;1.40;;
70532;SDS011;58088;51.186;17.130;2023-04-03T01:11:31;7.10;;;1.60;;
70532;SDS011;58088;51.186;17.130;2023-04-03T01:13:57;3.60;;;0.90;;
70532;SDS011;58088;51.186;17.130;2023-04-03T01:16:24;5.50;;;1.20;;
70532;SDS011;58088;51.186;17.130;2023-04-03T01:18:50;4.70;;;0.70;;
70532;SDS011;58088;51.186;17.130;2023-04-03T01:26:59;2.80;;;0.80;;
70532;SDS011;58088;51.186;17.130;2023-04-03T01:29:28;5.40;;;1.30;;
70532;SDS011;58088;51.186;17.130;2023-04-03T01:31:57;4.90;;;1.10;;
70532;SDS011;58088;51.186;17.130;2023-04-03T01:34:27;6.90;;;1.20;;
70532;SDS011;58088;51.186;17.130;2023-04-03T01:36:55;6.10;;;1.40;;
70532;SDS011;58088;51.186;17.130;2023-04-03T01:39:22;5.40;;;1.00;;
70532;SDS011;58088;51.186;17.130;2023-04-03T01:41:49;6.60;;;0.90;;
70532;SDS011;58088;51.186;17.130;2023-04-03T01:44:37;4.10;;;0.70;;
70532;SDS011;58088;51.186;17.130;2023-04-03T01:47:06;4.00;;;0.90;;
70532;SDS011;58088;51.186;17.130;2023-04-03T01:49:33;5.10;;;1.00;;
70532;SDS011;58088;51.186;17.130;2023-04-03T01:52:00;4.50;;;0.90;;
70532;SDS011;58088;51.186;17.130;2023-04-03T01:54:26;4.50;;;1.40;;
70532;SDS011;58088;51.186;17.130;2023-04-03T01:56:52;5.40;;;1.00;;
70532;SDS011;58088;51.186;17.130;2023-04-03T01:59:19;5.80;;;1.40;;
70532;SDS011;58088;51.186;17.130;2023-04-03T02:02:11;7.10;;;1.20;;
70532;SDS011;58088;51.186;17.130;2023-04-03T02:04:58;6.90;;;1.20;;
70532;SDS011;58088;51.186;17.130;2023-04-03T02:07:24;5.40;;;1.40;;
70532;SDS011;58088;51.186;17.130;2023-04-03T02:09:51;5.60;;;1.00;;
70532;SDS011;58088;51.186;17.130;2023-04-03T02:12:17;2.90;;;0.90;;
70532;SDS011;58088;51.186;17.130;2023-04-03T02:14:44;5.10;;;1.20;;
70532;SDS011;58088;51.186;17.130;2023-04-03T02:17:11;3.20;;;0.60;;
70532;SDS011;58088;51.186;17.130;2023-04-03T02:19:37;5.50;;;1.20;;
70532;SDS011;58088;51.186;17.130;2023-04-03T02:22:04;5.50;;;1.00;;
70532;SDS011;58088;51.186;17.130;2023-04-03T02:24:32;6.80;;;1.60;;
70532;SDS011;58088;51.186;17.130;2023-04-03T02:26:59;8.10;;;1.40;;
70532;SDS011;58088;51.186;17.130;2023-04-03T02:29:25;6.70;;;1.20;;
70532;SDS011;58088;51.186;17.130;2023-04-03T02:31:52;7.80;;;1.10;;
70532;SDS011;58088;51.186;17.130;2023-04-03T02:34:19;3.70;;;0.70;;
70532;SDS011;58088;51.186;17.130;2023-04-03T02:36:46;3.60;;;1.20;;
70532;SDS011;58088;51.186;17.130;2023-04-03T02:39:13;5.60;;;1.40;;
70532;SDS011;58088;51.186;17.130;2023-04-03T02:41:39;5.00;;;0.80;;
70532;SDS011;58088;51.186;17.130;2023-04-03T02:44:11;5.50;;;1.30;;
70532;SDS011;58088;51.186;17.130;2023-04-03T02:46:38;5.40;;;1.10;;
70532;SDS011;58088;51.186;17.130;2023-04-03T02:49:05;4.80;;;0.90;;
70532;SDS011;58088;51.186;17.130;2023-04-03T02:51:31;3.80;;;0.70;;
70532;SDS011;58088;51.186;17.130;2023-04-03T02:53:58;5.10;;;1.00;;
70532;SDS011;58088;51.186;17.130;2023-04-03T02:56:26;6.40;;;1.40;;
70532;SDS011;58088;51.186;17.130;2023-04-03T02:58:53;4.80;;;1.20;;
70532;SDS011;58088;51.186;17.130;2023-04-03T03:01:19;6.50;;;1.20;;
70532;SDS011;58088;51.186;17.130;2023-04-03T03:03:46;2.80;;;0.90;;
70532;SDS011;58088;51.186;17.130;2023-04-03T03:06:14;6.60;;;1.00;;
70532;SDS011;58088;51.186;17.130;2023-04-03T03:08:42;5.20;;;1.10;;
70532;SDS011;58088;51.186;17.130;2023-04-03T03:11:09;5.40;;;0.80;;
70532;SDS011;58088;51.186;17.130;2023-04-03T03:13:36;2.30;;;0.60;;
70532;SDS011;58088;51.186;17.130;2023-04-03T03:16:03;5.10;;;0.90;;
70532;SDS011;58088;51.186;17.130;2023-04-03T03:18:30;4.60;;;0.70;;
70532;SDS011;58088;51.186;17.130;2023-04-03T03:20:58;5.20;;;1.00;;
70532;SDS011;58088;51.186;17.130;2023-04-03T03:23:27;4.00;;;0.70;;
70532;SDS011;58088;51.186;17.130;2023-04-03T03:25:56;6.20;;;0.60;;
70532;SDS011;58088;51.186;17.130;2023-04-03T03:28:24;6.20;;;1.20;;
70532;SDS011;58088;51.186;17.130;2023-04-03T03:30:50;6.20;;;1.30;;
70532;SDS011;58088;51.186;17.130;2023-04-03T03:33:18;3.40;;;0.80;;
70532;SDS011;58088;51.186;17.130;2023-04-03T03:35:45;4.70;;;1.20;;
70532;SDS011;58088;51.186;17.130;2023-04-03T03:38:12;4.60;;;1.30;;
70532;SDS011;58088;51.186;17.130;2023-04-03T03:40:38;4.30;;;0.90;;
70532;SDS011;58088;51.186;17.130;2023-04-03T03:43:05;6.40;;;1.00;;
70532;SDS011;58088;51.186;17.130;2023-04-03T03:45:31;7.10;;;1.20;;
70532;SDS011;58088;51.186;17.130;2023-04-03T03:47:58;3.00;;;1.00;;
70532;SDS011;58088;51.186;17.130;2023-04-03T03:50:24;9.60;;;1.80;;
70532;SDS011;58088;51.186;17.130;2023-04-03T03:52:51;6.60;;;1.50;;
70532;SDS011;58088;51.186;17.130;2023-04-03T03:55:17;2.50;;;0.70;;
70532;SDS011;58088;51.186;17.130;2023-04-03T03:57:45;7.40;;;1.50;;
70532;SDS011;58088;51.186;17.130;2023-04-03T04:00:11;6.40;;;1.40;;
70532;SDS011;58088;51.186;17.130;2023-04-03T04:02:42;6.20;;;1.20;;
70532;SDS011;58088;51.186;17.130;2023-04-03T04:05:11;9.10;;;1.50;;
70532;SDS011;58088;51.186;17.130;2023-04-03T04:07:38;9.50;;;1.40;;
70532;SDS011;58088;51.186;17.130;2023-04-03T04:10:04;3.70;;;1.00;;
70532;SDS011;58088;51.186;17.130;2023-04-03T04:12:32;7.10;;;1.30;;
70532;SDS011;58088;51.186;17.130;2023-04-03T04:14:58;5.00;;;1.00;;
70532;SDS011;58088;51.186;17.130;2023-04-03T04:17:25;5.50;;;1.40;;
70532;SDS011;58088;51.186;17.130;2023-04-03T04:19:51;4.50;;;1.00;;
70532;SDS011;58088;51.186;17.130;2023-04-03T04:22:18;7.30;;;1.60;;
70532;SDS011;58088;51.186;17.130;2023-04-03T04:24:44;6.70;;;1.70;;
70532;SDS011;58088;51.186;17.130;2023-04-03T04:27:10;5.90;;;1.30;;
70532;SDS011;58088;51.186;17.130;2023-04-03T04:29:37;6.30;;;1.20;;
70532;SDS011;58088;51.186;17.130;2023-04-03T04:32:04;3.10;;;1.20;;
70532;SDS011;58088;51.186;17.130;2023-04-03T04:34:31;4.40;;;1.10;;
70532;SDS011;58088;51.186;17.130;2023-04-03T04:36:57;6.00;;;1.30;;
70532;SDS011;58088;51.186;17.130;2023-04-03T04:39:24;4.70;;;1.00;;
70532;SDS011;58088;51.186;17.130;2023-04-03T04:41:50;6.60;;;1.70;;
70532;SDS011;58088;51.186;17.130;2023-04-03T04:44:17;6.50;;;1.40;;
70532;SDS011;58088;51.186;17.130;2023-04-03T04:46:43;6.30;;;1.60;;
70532;SDS011;58088;51.186;17.130;2023-04-03T04:49:10;5.00;;;1.00;;
70532;SDS011;58088;51.186;17.130;2023-04-03T04:51:36;3.80;;;0.90;;
70532;SDS011;58088;51.186;17.130;2023-04-03T04:54:02;6.20;;;1.10;;
70532;SDS011;58088;51.186;17.130;2023-04-03T04:56:29;6.90;;;1.10;;
70532;SDS011;58088;51.186;17.130;2023-04-03T04:58:55;4.40;;;1.20;;
70532;SDS011;58088;51.186;17.130;2023-04-03T05:01:22;6.10;;;1.30;;
70532;SDS011;58088;51.186;17.130;2023-04-03T05:03:54;6.20;;;0.90;;
70532;SDS011;58088;51.186;17.130;2023-04-03T05:06:22;6.60;;;1.40;;
70532;SDS011;58088;51.186;17.130;2023-04-03T05:08:50;5.80;;;1.30;;
70532;SDS011;58088;51.186;17.130;2023-04-03T05:11:17;4.80;;;1.10;;
70532;SDS011;58088;51.186;17.130;2023-04-03T05:13:43;7.00;;;1.40;;
70532;SDS011;58088;51.186;17.130;2023-04-03T05:16:10;4.10;;;0.90;;
70532;SDS011;58088;51.186;17.130;2023-04-03T05:18:37;6.20;;;1.30;;
70532;SDS011;58088;51.186;17.130;2023-04-03T05:21:07;5.40;;;1.60;;
70532;SDS011;58088;51.186;17.130;2023-04-03T05:23:33;7.20;;;1.40;;
70532;SDS011;58088;51.186;17.130;2023-04-03T05:26:00;6.00;;;1.60;;
70532;SDS011;58088;51.186;17.130;2023-04-03T05:28:26;7.60;;;1.40;;
70532;SDS011;58088;51.186;17.130;2023-04-03T05:30:57;5.50;;;1.60;;
70532;SDS011;58088;51.186;17.130;2023-04-03T05:33:28;6.80;;;1.40;;
70532;SDS011;58088;51.186;17.130;2023-04-03T05:35:56;7.30;;;1.90;;
70532;SDS011;58088;51.186;17.130;2023-04-03T05:38:26;6.10;;;2.00;;
70532;SDS011;58088;51.186;17.130;2023-04-03T05:40:53;5.30;;;1.20;;
70532;SDS011;58088;51.186;17.130;2023-04-03T05:43:19;6.30;;;1.80;;
70532;SDS011;58088;51.186;17.130;2023-04-03T05:45:47;7.60;;;1.70;;
70532;SDS011;58088;51.186;17.130;2023-04-03T05:48:14;7.20;;;1.60;;
70532;SDS011;58088;51.186;17.130;2023-04-03T05:50:41;4.70;;;1.20;;
70532;SDS011;58088;51.186;17.130;2023-04-03T05:53:22;5.00;;;1.50;;
70532;SDS011;58088;51.186;17.130;2023-04-03T05:55:53;6.60;;;1.70;;
70532;SDS011;58088;51.186;17.130;2023-04-03T05:58:20;6.70;;;1.40;;
70532;SDS011;58088;51.186;17.130;2023-04-03T06:00:47;5.10;;;1.40;;
70532;SDS011;58088;51.186;17.130;2023-04-03T06:03:15;4.00;;;1.20;;
70532;SDS011;58088;51.186;17.130;2023-04-03T06:05:42;5.10;;;1.60;;
70532;SDS011;58088;51.186;17.130;2023-04-03T06:08:10;5.90;;;1.40;;
70532;SDS011;58088;51.186;17.130;2023-04-03T06:10:36;7.00;;;1.90;;
70532;SDS011;58088;51.186;17.130;2023-04-03T06:13:04;5.20;;;1.80;;
70532;SDS011;58088;51.186;17.130;2023-04-03T06:15:30;6.60;;;1.50;;
70532;SDS011;58088;51.186;17.130;2023-04-03T06:17:56;6.20;;;1.50;;
70532;SDS011;58088;51.186;17.130;2023-04-03T06:20:22;8.20;;;1.90;;
70532;SDS011;58088;51.186;17.130;2023-04-03T06:22:49;6.30;;;1.70;;
70532;SDS011;58088;51.186;17.130;2023-04-03T06:25:16;8.20;;;1.90;;
70532;SDS011;58088;51.186;17.130;2023-04-03T06:27:45;4.40;;;1.20;;
70532;SDS011;58088;51.186;17.130;2023-04-03T06:30:11;8.40;;;1.90;;
70532;SDS011;58088;51.186;17.130;2023-04-03T06:32:38;6.10;;;1.50;;
70532;SDS011;58088;51.186;17.130;2023-04-03T06:35:05;7.20;;;1.90;;
70532;SDS011;58088;51.186;17.130;2023-04-03T06:37:32;6.50;;;2.10;;
70532;SDS011;58088;51.186;17.130;2023-04-03T06:39:58;7.80;;;2.70;;
70532;SDS011;58088;51.186;17.130;2023-04-03T06:42:26;9.40;;;2.60;;
70532;SDS011;58088;51.186;17.130;2023-04-03T06:45:00;5.00;;;1.50;;
70532;SDS011;58088;51.186;17.130;2023-04-03T06:47:26;11.30;;;3.00;;
70532;SDS011;58088;51.186;17.130;2023-04-03T06:49:52;6.10;;;1.70;;
70532;SDS011;58088;51.186;17.130;2023-04-03T06:52:18;7.10;;;1.80;;
70532;SDS011;58088;51.186;17.130;2023-04-03T06:54:45;5.80;;;2.20;;
70532;SDS011;58088;51.186;17.130;2023-04-03T06:57:11;6.10;;;2.20;;
70532;SDS011;58088;51.186;17.130;2023-04-03T06:59:37;8.80;;;1.70;;
70532;SDS011;58088;51.186;17.130;2023-04-03T07:02:04;5.70;;;1.60;;
70532;SDS011;58088;51.186;17.130;2023-04-03T07:04:30;7.90;;;2.40;;
70532;SDS011;58088;51.186;17.130;2023-04-03T07:06:56;8.30;;;3.10;;
70532;SDS011;58088;51.186;17.130;2023-04-03T07:09:22;7.30;;;2.50;;
70532;SDS011;58088;51.186;17.130;2023-04-03T07:11:48;7.50;;;1.60;;
70532;SDS011;58088;51.186;17.130;2023-04-03T07:14:15;6.50;;;1.90;;
70532;SDS011;58088;51.186;17.130;2023-04-03T07:16:41;5.70;;;2.00;;
70532;SDS011;58088;51.186;17.130;2023-04-03T07:19:08;6.20;;;1.50;;
70532;SDS011;58088;51.186;17.130;2023-04-03T07:21:34;5.60;;;1.90;;
70532;SDS011;58088;51.186;17.130;2023-04-03T07:24:01;9.00;;;2.20;;
70532;SDS011;58088;51.186;17.130;2023-04-03T07:26:27;9.20;;;2.60;;
70532;SDS011;58088;51.186;17.130;2023-04-03T07:28:54;4.80;;;1.50;;
70532;SDS011;58088;51.186;17.130;2023-04-03T07:31:20;5.90;;;1.30;;
70532;SDS011;58088;51.186;17.130;2023-04-03T07:33:47;6.50;;;2.20;;
70532;SDS011;58088;51.186;17.130;2023-04-03T07:36:19;6.20;;;1.80;;
70532;SDS011;58088;51.186;17.130;2023-04-03T07:38:47;5.20;;;1.50;;
70532;SDS011;58088;51.186;17.130;2023-04-03T07:41:18;4.50;;;1.40;;
70532;SDS011;58088;51.186;17.130;2023-04-03T07:43:48;6.30;;;1.80;;
70532;SDS011;58088;51.186;17.130;2023-04-03T07:46:15;7.00;;;1.50;;
70532;SDS011;58088;51.186;17.130;2023-04-03T07:48:43;5.80;;;1.50;;
70532;SDS011;58088;51.186;17.130;2023-04-03T07:51:09;4.10;;;1.30;;
70532;SDS011;58088;51.186;17.130;2023-04-03T07:53:36;7.30;;;2.00;;
70532;SDS011;58088;51.186;17.130;2023-04-03T07:56:02;6.90;;;1.60;;
70532;SDS011;58088;51.186;17.130;2023-04-03T07:58:29;6.80;;;2.30;;
70532;SDS011;58088;51.186;17.130;2023-04-03T08:00:56;5.30;;;1.70;;
70532;SDS011;58088;51.186;17.130;2023-04-03T08:03:23;5.70;;;1.60;;
70532;SDS011;58088;51.186;17.130;2023-04-03T08:05:49;5.60;;;2.00;;
70532;SDS011;58088;51.186;17.130;2023-04-03T08:08:19;5.80;;;1.60;;
70532;SDS011;58088;51.186;17.130;2023-04-03T08:10:53;6.10;;;1.50;;
70532;SDS011;58088;51.186;17.130;2023-04-03T08:13:20;5.80;;;1.40;;
70532;SDS011;58088;51.186;17.130;2023-04-03T08:15:47;6.00;;;2.00;;
70532;SDS011;58088;51.186;17.130;2023-04-03T08:18:15;5.60;;;1.60;;
70532;SDS011;58088;51.186;17.130;2023-04-03T08:20:42;4.30;;;1.40;;
70532;SDS011;58088;51.186;17.130;2023-04-03T08:23:09;3.00;;;1.00;;
70532;SDS011;58088;51.186;17.130;2023-04-03T08:25:42;5.00;;;1.40;;
70532;SDS011;58088;51.186;17.130;2023-04-03T08:28:10;4.00;;;1.40;;
70532;SDS011;58088;51.186;17.130;2023-04-03T08:30:41;3.90;;;1.20;;
70532;SDS011;58088;51.186;17.130;2023-04-03T08:33:08;3.90;;;1.10;;
70532;SDS011;58088;51.186;17.130;2023-04-03T08:35:40;3.50;;;1.10;;
70532;SDS011;58088;51.186;17.130;2023-04-03T08:38:07;5.50;;;1.50;;
70532;SDS011;58088;51.186;17.130;2023-04-03T08:40:34;3.30;;;1.00;;
70532;SDS011;58088;51.186;17.130;2023-04-03T08:43:54;4.80;;;1.30;;
70532;SDS011;58088;51.186;17.130;2023-04-03T08:46:23;4.30;;;1.30;;
70532;SDS011;58088;51.186;17.130;2023-04-03T08:49:01;6.30;;;1.50;;
70532;SDS011;58088;51.186;17.130;2023-04-03T08:51:28;4.30;;;1.40;;
70532;SDS011;58088;51.186;17.130;2023-04-03T08:54:03;3.80;;;1.00;;
70532;SDS011;58088;51.186;17.130;2023-04-03T08:56:34;4.90;;;1.50;;
70532;SDS011;58088;51.186;17.130;2023-04-03T08:59:10;4.60;;;1.30;;
70532;SDS011;58088;51.186;17.130;2023-04-03T09:01:40;5.00;;;1.20;;
70532;SDS011;58088;51.186;17.130;2023-04-03T09:04:13;3.90;;;1.10;;
70532;SDS011;58088;51.186;17.130;2023-04-03T09:06:44;6.60;;;1.40;;
70532;SDS011;58088;51.186;17.130;2023-04-03T09:12:17;4.20;;;1.30;;
70532;SDS011;58088;51.186;17.130;2023-04-03T09:17:41;5.00;;;1.40;;
70532;SDS011;58088;51.186;17.130;2023-04-03T09:20:14;4.60;;;1.40;;
70532;SDS011;58088;51.186;17.130;2023-04-03T09:22:47;5.50;;;1.50;;
70532;SDS011;58088;51.186;17.130;2023-04-03T09:25:17;6.10;;;1.30;;
70532;SDS011;58088;51.186;17.130;2023-04-03T09:27:47;3.30;;;1.00;;
70532;SDS011;58088;51.186;17.130;2023-04-03T09:30:17;3.70;;;1.10;;
70532;SDS011;58088;51.186;17.130;2023-04-03T09:32:51;5.10;;;1.00;;
70532;SDS011;58088;51.186;17.130;2023-04-03T09:35:24;5.50;;;1.50;;
70532;SDS011;58088;51.186;17.130;2023-04-03T09:37:57;4.10;;;1.40;;
70532;SDS011;58088;51.186;17.130;2023-04-03T09:40:44;6.50;;;1.70;;
70532;SDS011;58088;51.186;17.130;2023-04-03T09:45:44;3.70;;;1.20;;
70532;SDS011;58088;51.186;17.130;2023-04-03T09:53:37;3.60;;;1.20;;
70532;SDS011;58088;51.186;17.130;2023-04-03T09:56:29;5.90;;;1.50;;
70532;SDS011;58088;51.186;17.130;2023-04-03T10:04:11;6.20;;;2.00;;
70532;SDS011;58088;51.186;17.130;2023-04-03T10:06:43;5.90;;;1.50;;
70532;SDS011;58088;51.186;17.130;2023-04-03T10:12:07;5.30;;;1.30;;
70532;SDS011;58088;51.186;17.130;2023-04-03T10:14:38;3.40;;;1.10;;
70532;SDS011;58088;51.186;17.130;2023-04-03T10:17:23;4.50;;;1.00;;
70532;SDS011;58088;51.186;17.130;2023-04-03T10:20:09;4.30;;;1.40;;
70532;SDS011;58088;51.186;17.130;2023-04-03T10:23:02;3.90;;;1.30;;
70532;SDS011;58088;51.186;17.130;2023-04-03T10:26:02;2.80;;;1.00;;
70532;SDS011;58088;51.186;17.130;2023-04-03T10:29:15;5.60;;;1.50;;
70532;SDS011;58088;51.186;17.130;2023-04-03T10:32:09;4.40;;;1.50;;
70532;SDS011;58088;51.186;17.130;2023-04-03T10:34:43;4.40;;;1.30;;
70532;SDS011;58088;51.186;17.130;2023-04-03T10:37:35;5.20;;;1.80;;
70532;SDS011;58088;51.186;17.130;2023-04-03T10:46:09;3.70;;;1.00;;
70532;SDS011;58088;51.186;17.130;2023-04-03T10:48:53;4.90;;;1.30;;
70532;SDS011;58088;51.186;17.130;2023-04-03T10:51:45;3.60;;;0.80;;
70532;SDS011;58088;51.186;17.130;2023-04-03T10:54:42;2.50;;;0.80;;
70532;SDS011;58088;51.186;17.130;2023-04-03T10:57:11;2.30;;;0.80;;
70532;SDS011;58088;51.186;17.130;2023-04-03T11:02:16;3.20;;;1.10;;
70532;SDS011;58088;51.186;17.130;2023-04-03T11:07:52;5.50;;;1.40;;
70532;SDS011;58088;51.186;17.130;2023-04-03T11:10:40;4.20;;;1.20;;
70532;SDS011;58088;51.186;17.130;2023-04-03T11:16:46;2.80;;;0.90;;
70532;SDS011;58088;51.186;17.130;2023-04-03T11:19:34;2.50;;;0.80;;
70532;SDS011;58088;51.186;17.130;2023-04-03T11:22:08;5.00;;;1.30;;
70532;SDS011;58088;51.186;17.130;2023-04-03T11:24:42;4.20;;;0.90;;
70532;SDS011;58088;51.186;17.130;2023-04-03T11:27:19;3.40;;;1.00;;
70532;SDS011;58088;51.186;17.130;2023-04-03T11:29:49;3.50;;;1.30;;
70532;SDS011;58088;51.186;17.130;2023-04-03T11:35:01;6.90;;;1.70;;
70532;SDS011;58088;51.186;17.130;2023-04-03T11:37:41;4.20;;;1.30;;
70532;SDS011;58088;51.186;17.130;2023-04-03T11:42:51;5.00;;;1.30;;
70532;SDS011;58088;51.186;17.130;2023-04-03T11:45:24;3.50;;;1.20;;
70532;SDS011;58088;51.186;17.130;2023-04-03T11:50:48;5.80;;;1.40;;
70532;SDS011;58088;51.186;17.130;2023-04-03T11:58:18;5.30;;;1.10;;
70532;SDS011;58088;51.186;17.130;2023-04-03T12:00:53;3.10;;;1.00;;
70532;SDS011;58088;51.186;17.130;2023-04-03T12:19:30;5.00;;;1.50;;
70532;SDS011;58088;51.186;17.130;2023-04-03T12:24:27;3.30;;;1.00;;
70532;SDS011;58088;51.186;17.130;2023-04-03T12:41:27;4.50;;;1.40;;
70532;SDS011;58088;51.186;17.130;2023-04-03T12:49:52;5.00;;;1.40;;
70532;SDS011;58088;51.186;17.130;2023-04-03T12:52:30;3.90;;;1.50;;
70532;SDS011;58088;51.186;17.130;2023-04-03T12:55:02;4.80;;;1.50;;
70532;SDS011;58088;51.186;17.130;2023-04-03T12:57:33;4.50;;;1.40;;
70532;SDS011;58088;51.186;17.130;2023-04-03T12:59:59;4.40;;;1.60;;
70532;SDS011;58088;51.186;17.130;2023-04-03T13:02:31;2.50;;;1.10;;
70532;SDS011;58088;51.186;17.130;2023-04-03T13:05:07;4.60;;;1.50;;
70532;SDS011;58088;51.186;17.130;2023-04-03T13:07:37;4.40;;;1.30;;
70532;SDS011;58088;51.186;17.130;2023-04-03T13:17:53;4.70;;;1.10;;
70532;SDS011;58088;51.186;17.130;2023-04-03T13:20:32;3.90;;;1.60;;
70532;SDS011;58088;51.186;17.130;2023-04-03T13:23:05;6.90;;;2.50;;
70532;SDS011;58088;51.186;17.130;2023-04-03T13:25:39;7.40;;;2.10;;
70532;SDS011;58088;51.186;17.130;2023-04-03T13:28:12;6.80;;;1.90;;
70532;SDS011;58088;51.186;17.130;2023-04-03T13:33:35;4.10;;;1.60;;
70532;SDS011;58088;51.186;17.130;2023-04-03T13:36:19;5.40;;;1.40;;
70532;SDS011;58088;51.186;17.130;2023-04-03T13:39:20;7.60;;;2.50;;
70532;SDS011;58088;51.186;17.130;2023-04-03T13:41:52;7.40;;;2.50;;
70532;SDS011;58088;51.186;17.130;2023-04-03T13:44:26;6.70;;;2.20;;
70532;SDS011;58088;51.186;17.130;2023-04-03T13:50:00;4.50;;;1.60;;
70532;SDS011;58088;51.186;17.130;2023-04-03T13:52:38;5.60;;;1.30;;
70532;SDS011;58088;51.186;17.130;2023-04-03T13:55:18;5.40;;;1.70;;
70532;SDS011;58088;51.186;17.130;2023-04-03T14:06:25;6.20;;;2.00;;
70532;SDS011;58088;51.186;17.130;2023-04-03T14:08:52;4.00;;;1.40;;
70532;SDS011;58088;51.186;17.130;2023-04-03T14:11:22;3.10;;;1.10;;
70532;SDS011;58088;51.186;17.130;2023-04-03T14:13:53;3.70;;;1.40;;
70532;SDS011;58088;51.186;17.130;2023-04-03T14:16:22;3.80;;;1.30;;
70532;SDS011;58088;51.186;17.130;2023-04-03T14:18:51;5.10;;;1.40;;
70532;SDS011;58088;51.186;17.130;2023-04-03T14:21:19;2.70;;;1.20;;
70532;SDS011;58088;51.186;17.130;2023-04-03T14:23:47;4.30;;;1.20;;
70532;SDS011;58088;51.186;17.130;2023-04-03T14:26:17;4.10;;;1.30;;
70532;SDS011;58088;51.186;17.130;2023-04-03T14:28:49;4.80;;;1.60;;
70532;SDS011;58088;51.186;17.130;2023-04-03T14:31:17;3.30;;;1.30;;
70532;SDS011;58088;51.186;17.130;2023-04-03T14:33:45;4.50;;;1.50;;
70532;SDS011;58088;51.186;17.130;2023-04-03T14:36:20;4.80;;;1.70;;
70532;SDS011;58088;51.186;17.130;2023-04-03T14:38:49;5.10;;;1.30;;
70532;SDS011;58088;51.186;17.130;2023-04-03T14:41:19;3.50;;;1.40;;
70532;SDS011;58088;51.186;17.130;2023-04-03T14:43:47;6.90;;;2.50;;
70532;SDS011;58088;51.186;17.130;2023-04-03T14:46:36;6.50;;;2.00;;
70532;SDS011;58088;51.186;17.130;2023-04-03T14:49:14;8.20;;;2.40;;
70532;SDS011;58088;51.186;17.130;2023-04-03T14:51:41;12.30;;;4.20;;
70532;SDS011;58088;51.186;17.130;2023-04-03T14:54:26;6.90;;;1.20;;
70532;SDS011;58088;51.186;17.130;2023-04-03T14:56:58;5.40;;;1.50;;
70532;SDS011;58088;51.186;17.130;2023-04-03T14:59:25;4.80;;;1.50;;
70532;SDS011;58088;51.186;17.130;2023-04-03T15:01:54;4.10;;;1.80;;
70532;SDS011;58088;51.186;17.130;2023-04-03T15:04:20;4.80;;;1.80;;
70532;SDS011;58088;51.186;17.130;2023-04-03T15:06:48;10.60;;;3.20;;
70532;SDS011;58088;51.186;17.130;2023-04-03T15:09:23;10.10;;;3.00;;
70532;SDS011;58088;51.186;17.130;2023-04-03T15:11:52;10.90;;;3.00;;
70532;SDS011;58088;51.186;17.130;2023-04-03T15:14:20;8.40;;;3.10;;
70532;SDS011;58088;51.186;17.130;2023-04-03T15:16:48;7.90;;;2.60;;
70532;SDS011;58088;51.186;17.130;2023-04-03T15:19:14;5.50;;;1.70;;
70532;SDS011;58088;51.186;17.130;2023-04-03T15:21:40;6.00;;;2.30;;
70532;SDS011;58088;51.186;17.130;2023-04-03T15:24:08;5.60;;;1.70;;
70532;SDS011;58088;51.186;17.130;2023-04-03T15:26:34;6.90;;;2.20;;
70532;SDS011;58088;51.186;17.130;2023-04-03T15:29:01;6.90;;;1.60;;
70532;SDS011;58088;51.186;17.130;2023-04-03T15:31:27;4.90;;;1.10;;
70532;SDS011;58088;51.186;17.130;2023-04-03T15:33:54;7.20;;;2.20;;
70532;SDS011;58088;51.186;17.130;2023-04-03T15:36:20;5.70;;;1.50;;
70532;SDS011;58088;51.186;17.130;2023-04-03T15:38:47;3.80;;;1.50;;
70532;SDS011;58088;51.186;17.130;2023-04-03T15:41:13;6.30;;;1.90;;
70532;SDS011;58088;51.186;17.130;2023-04-03T15:43:39;4.00;;;1.70;;
70532;SDS011;58088;51.186;17.130;2023-04-03T15:46:06;7.30;;;1.80;;
70532;SDS011;58088;51.186;17.130;2023-04-03T15:48:32;5.40;;;1.90;;
70532;SDS011;58088;51.186;17.130;2023-04-03T15:51:00;4.00;;;1.40;;
70532;SDS011;58088;51.186;17.130;2023-04-03T15:53:26;4.80;;;1.70;;
70532;SDS011;58088;51.186;17.130;2023-04-03T15:55:52;4.40;;;1.40;;
70532;SDS011;58088;51.186;17.130;2023-04-03T15:58:19;4.40;;;1.60;;
70532;SDS011;58088;51.186;17.130;2023-04-03T16:00:45;5.60;;;1.70;;
70532;SDS011;58088;51.186;17.130;2023-04-03T16:03:16;6.40;;;2.20;;
70532;SDS011;58088;51.186;17.130;2023-04-03T16:05:44;6.60;;;2.40;;
70532;SDS011;58088;51.186;17.130;2023-04-03T16:08:11;5.80;;;2.30;;
70532;SDS011;58088;51.186;17.130;2023-04-03T16:10:39;6.90;;;1.80;;
70532;SDS011;58088;51.186;17.130;2023-04-03T16:13:07;5.60;;;2.10;;
70532;SDS011;58088;51.186;17.130;2023-04-03T16:15:34;4.30;;;1.50;;
70532;SDS011;58088;51.186;17.130;2023-04-03T16:18:02;5.40;;;1.10;;
70532;SDS011;58088;51.186;17.130;2023-04-03T16:20:29;3.90;;;1.00;;
70532;SDS011;58088;51.186;17.130;2023-04-03T16:22:57;5.00;;;1.80;;
70532;SDS011;58088;51.186;17.130;2023-04-03T16:25:25;5.10;;;1.80;;
70532;SDS011;58088;51.186;17.130;2023-04-03T16:27:52;5.10;;;1.80;;
70532;SDS011;58088;51.186;17.130;2023-04-03T16:30:19;7.40;;;2.50;;
70532;SDS011;58088;51.186;17.130;2023-04-03T16:32:45;7.30;;;2.20;;
70532;SDS011;58088;51.186;17.130;2023-04-03T16:35:12;6.40;;;2.50;;
70532;SDS011;58088;51.186;17.130;2023-04-03T16:37:38;7.10;;;2.50;;
70532;SDS011;58088;51.186;17.130;2023-04-03T16:40:07;7.30;;;2.70;;
70532;SDS011;58088;51.186;17.130;2023-04-03T16:42:34;6.10;;;2.20;;
70532;SDS011;58088;51.186;17.130;2023-04-03T16:45:01;5.90;;;2.60;;
70532;SDS011;58088;51.186;17.130;2023-04-03T16:47:29;6.20;;;2.70;;